GABS/BKO METAR and TAF weather

Enter ICAO airport designator
Station Type Date Time Source
GABS METAR 2019/08/19 12:00 UTC NOAA

GABS 191200Z 28004KT 240V320 9999 SCT020 29/22 Q1015 NOSIG


Station Type Date Time Source
GABS Decoded METAR 2019/08/19 12:00 UTC NOAA

Station name not available
Aug 19, 2019 - 08:00 AM EDT / 2019.08.19 1200 UTC
Wind: from the W (280 degrees) at 5 MPH (4 KT) (direction variable):0
Visibility: greater than 7 mile(s):0
Sky conditions: partly cloudy
Temperature: 84 F (29 C)
Dew Point: 71 F (22 C)
Relative Humidity: 65%
Pressure (altimeter): 29.97 in. Hg (1015 hPa)
ob: GABS 191200Z 28004KT 240V320 9999 SCT020 29/22 Q1015 NOSIG
cycle: 12

Station Type Date Time Source
GABS TAF 2019/08/19 12:24 UTC NOAA

TAF TAF COR GABS 191120Z 1912/2018 VRB02KT 9999 FEW020 PROB30
TEMPO 1912/1918 VRB15KT 2000 TSSHRA BKN020 SCT026CB PROB40
TEMPO 1918/1924 VRB15G35KT 3000 SQ TSRA BKN020 SCT026CB

Example: see airport list